createdAt,value
2023-05-05T00:01:55.399Z,16.90
2023-05-05T00:04:28.779Z,16.80
2023-05-05T00:07:02.025Z,16.80
2023-05-05T00:09:35.043Z,16.80
2023-05-05T00:12:08.365Z,16.70
2023-05-05T00:14:41.821Z,16.70
2023-05-05T00:17:16.652Z,16.70
2023-05-05T00:19:49.670Z,16.60
2023-05-05T00:22:22.613Z,16.60
2023-05-05T00:24:56.059Z,16.50
2023-05-05T00:27:28.994Z,16.50
2023-05-05T00:30:02.000Z,16.40
2023-05-05T00:32:34.987Z,16.30
2023-05-05T00:35:08.661Z,16.20
2023-05-05T00:37:41.788Z,16.20
2023-05-05T00:40:14.694Z,16.10
2023-05-05T00:42:51.395Z,16.10
2023-05-05T00:45:24.523Z,16.10
2023-05-05T00:47:59.613Z,16.00
2023-05-05T00:50:32.530Z,16.00
2023-05-05T00:53:06.937Z,16.00
2023-05-05T00:55:40.478Z,16.00
2023-05-05T00:58:13.550Z,15.90
2023-05-05T01:00:46.518Z,15.90
2023-05-05T01:03:19.392Z,15.80
2023-05-05T01:06:04.624Z,15.70
2023-05-05T01:08:46.532Z,15.70
2023-05-05T01:11:46.201Z,15.60
2023-05-05T01:14:26.685Z,15.60
2023-05-05T01:17:08.380Z,15.60
2023-05-05T01:20:09.560Z,15.60
2023-05-05T01:22:49.912Z,15.50
2023-05-05T01:25:50.406Z,15.50
2023-05-05T01:28:45.590Z,15.40
2023-05-05T01:31:26.517Z,15.40
2023-05-05T01:34:02.875Z,15.30
2023-05-05T01:36:46.465Z,15.30
2023-05-05T01:39:20.697Z,15.30
2023-05-05T01:41:58.847Z,15.30
2023-05-05T01:44:34.716Z,15.30
2023-05-05T01:47:09.540Z,15.30
2023-05-05T01:49:47.475Z,15.30
2023-05-05T01:52:22.929Z,15.30
2023-05-05T01:54:57.929Z,15.30
2023-05-05T01:57:32.122Z,15.30
2023-05-05T02:00:07.293Z,15.20
2023-05-05T02:02:50.068Z,15.20
2023-05-05T02:05:24.651Z,15.20
2023-05-05T02:08:01.137Z,15.10
2023-05-05T02:10:37.457Z,15.10
2023-05-05T02:13:13.279Z,15.10
2023-05-05T02:15:47.881Z,15.10
2023-05-05T02:18:22.890Z,15.10
2023-05-05T02:20:56.689Z,15.10
2023-05-05T02:23:30.728Z,15.00
2023-05-05T02:26:07.877Z,15.00
2023-05-05T02:29:05.552Z,15.00
2023-05-05T02:31:50.927Z,15.00
2023-05-05T02:34:32.945Z,15.00
2023-05-05T02:37:09.972Z,15.00
2023-05-05T02:40:00.471Z,14.90
2023-05-05T02:42:38.889Z,14.90
2023-05-05T02:45:19.980Z,14.90
2023-05-05T02:47:55.129Z,14.90
2023-05-05T02:50:29.983Z,15.00
2023-05-05T02:53:12.285Z,14.90
2023-05-05T02:56:00.767Z,14.90
2023-05-05T02:58:52.118Z,14.90
2023-05-05T03:01:57.482Z,14.90
2023-05-05T03:04:48.642Z,14.90
2023-05-05T03:07:41.861Z,14.80
2023-05-05T03:10:20.780Z,14.80
2023-05-05T03:13:02.550Z,14.80
2023-05-05T03:15:47.916Z,14.80
2023-05-05T03:18:25.048Z,14.70
2023-05-05T03:21:08.723Z,14.70
2023-05-05T03:23:45.371Z,14.70
2023-05-05T03:26:24.820Z,14.70
2023-05-05T03:28:57.905Z,14.60
2023-05-05T03:31:34.759Z,14.60
2023-05-05T03:34:09.026Z,14.60
2023-05-05T03:36:48.169Z,14.60
2023-05-05T03:39:27.478Z,14.60
2023-05-05T03:42:01.490Z,14.50
2023-05-05T03:44:37.881Z,14.50
2023-05-05T03:47:11.008Z,14.50
2023-05-05T03:49:45.247Z,14.40
2023-05-05T03:52:18.421Z,14.40
2023-05-05T03:54:51.200Z,14.40
2023-05-05T03:57:24.813Z,14.30
2023-05-05T03:59:58.448Z,14.20
2023-05-05T04:02:32.719Z,14.20
2023-05-05T04:05:06.300Z,14.10
2023-05-05T04:07:39.171Z,14.10
2023-05-05T04:10:12.153Z,14.10
2023-05-05T04:12:45.076Z,14.00
2023-05-05T04:15:18.013Z,14.10
2023-05-05T04:17:53.455Z,13.90
2023-05-05T04:20:26.874Z,13.90
2023-05-05T04:23:02.432Z,13.90
2023-05-05T04:25:35.650Z,13.90
2023-05-05T04:28:09.059Z,13.90
2023-05-05T04:30:42.549Z,13.90
2023-05-05T04:33:15.838Z,13.90
2023-05-05T04:35:48.589Z,13.90
2023-05-05T04:38:21.898Z,13.80
2023-05-05T04:40:55.004Z,13.90
2023-05-05T04:43:28.465Z,13.90
2023-05-05T04:46:01.588Z,13.90
2023-05-05T04:48:38.762Z,13.90
2023-05-05T04:51:12.871Z,13.90
2023-05-05T04:53:46.579Z,13.90
2023-05-05T04:56:19.634Z,13.80
2023-05-05T04:58:52.565Z,13.80
2023-05-05T05:01:25.496Z,13.70
2023-05-05T05:03:58.619Z,13.80
2023-05-05T05:06:32.079Z,13.70
2023-05-05T05:09:05.550Z,13.60
2023-05-05T05:11:38.575Z,13.60
2023-05-05T05:14:13.069Z,13.60
2023-05-05T05:16:46.232Z,13.60
2023-05-05T05:19:20.649Z,13.70
2023-05-05T05:21:53.860Z,13.70
2023-05-05T05:24:26.918Z,13.70
2023-05-05T05:27:01.276Z,13.70
2023-05-05T05:29:34.632Z,13.80
2023-05-05T05:32:08.261Z,13.80
2023-05-05T05:34:41.587Z,13.90
2023-05-05T05:37:16.057Z,13.90
2023-05-05T05:39:52.421Z,14.00
2023-05-05T05:42:26.135Z,14.10
2023-05-05T05:44:59.218Z,14.20
2023-05-05T05:47:32.505Z,14.20
2023-05-05T05:50:07.471Z,14.30
2023-05-05T05:52:41.203Z,14.40
2023-05-05T05:55:14.420Z,14.50
2023-05-05T05:57:47.915Z,14.60
2023-05-05T06:00:21.446Z,14.70
2023-05-05T06:03:01.573Z,14.80
2023-05-05T06:05:38.194Z,14.90
2023-05-05T06:08:10.986Z,15.00
2023-05-05T06:10:49.575Z,15.20
2023-05-05T06:13:25.799Z,15.30
2023-05-05T06:15:59.120Z,15.40
2023-05-05T06:18:31.976Z,15.50
2023-05-05T06:21:05.092Z,15.60
2023-05-05T06:23:38.336Z,15.70
2023-05-05T06:26:13.351Z,15.80
2023-05-05T06:28:46.094Z,15.80
2023-05-05T06:31:19.178Z,15.90
2023-05-05T06:33:51.945Z,16.00
2023-05-05T06:36:24.969Z,16.20
2023-05-05T06:38:57.941Z,16.30
2023-05-05T06:41:30.856Z,16.30
2023-05-05T06:44:04.119Z,16.40
2023-05-05T06:46:37.050Z,16.60
2023-05-05T06:49:10.114Z,16.70
2023-05-05T06:51:43.133Z,16.80
2023-05-05T06:54:16.144Z,16.80
2023-05-05T06:56:49.464Z,16.90
2023-05-05T06:59:22.219Z,17.00
2023-05-05T07:01:55.132Z,17.00
2023-05-05T07:04:28.115Z,17.20
2023-05-05T07:07:01.166Z,17.20
2023-05-05T07:09:33.866Z,17.30
2023-05-05T07:12:07.213Z,17.50
2023-05-05T07:14:39.916Z,17.60
2023-05-05T07:17:12.681Z,17.70
2023-05-05T07:19:45.481Z,18.00
2023-05-05T07:22:18.294Z,18.20
2023-05-05T07:24:53.477Z,18.50
2023-05-05T07:27:26.776Z,18.70
2023-05-05T07:29:59.914Z,18.90
2023-05-05T07:32:32.762Z,19.10
2023-05-05T07:35:06.489Z,19.20
2023-05-05T07:37:39.576Z,19.30
2023-05-05T07:40:13.283Z,19.30
2023-05-05T07:42:47.430Z,19.30
2023-05-05T07:45:21.010Z,19.20
2023-05-05T07:47:54.004Z,19.00
2023-05-05T07:50:27.194Z,19.00
2023-05-05T07:53:10.860Z,19.00
2023-05-05T07:55:47.812Z,18.90
2023-05-05T07:58:20.586Z,18.90
2023-05-05T08:00:53.744Z,18.90
2023-05-05T08:03:26.979Z,18.90
2023-05-05T08:06:07.098Z,18.90
2023-05-05T08:08:39.988Z,18.90
2023-05-05T08:11:12.784Z,18.90
2023-05-05T08:13:46.531Z,19.00
2023-05-05T08:16:19.611Z,19.00
2023-05-05T08:18:52.649Z,19.10
2023-05-05T08:21:25.625Z,19.20
2023-05-05T08:23:58.497Z,19.50
2023-05-05T08:26:31.437Z,19.60
2023-05-05T08:29:04.225Z,19.60
2023-05-05T08:31:37.328Z,19.60
2023-05-05T08:34:10.185Z,19.70
2023-05-05T08:36:43.106Z,19.80
2023-05-05T08:39:16.638Z,19.80
2023-05-05T08:41:49.479Z,20.00
2023-05-05T08:44:22.705Z,20.10
2023-05-05T08:46:56.243Z,20.40
2023-05-05T08:49:32.469Z,20.50
2023-05-05T08:52:09.093Z,20.70
2023-05-05T08:54:51.677Z,20.80
2023-05-05T08:57:32.256Z,20.90
2023-05-05T09:00:06.329Z,21.10
2023-05-05T09:02:40.658Z,21.30
2023-05-05T09:05:13.807Z,21.40
2023-05-05T09:07:47.230Z,21.40
2023-05-05T09:10:20.562Z,21.70
2023-05-05T09:12:53.570Z,21.90
2023-05-05T09:15:29.369Z,22.00
2023-05-05T09:18:02.415Z,21.90
2023-05-05T09:20:37.326Z,22.00
2023-05-05T09:23:17.129Z,22.00
2023-05-05T09:26:09.171Z,22.10
2023-05-05T09:28:52.842Z,22.10
2023-05-05T09:31:26.657Z,22.10
2023-05-05T09:34:04.264Z,22.20
2023-05-05T09:36:47.988Z,22.30
2023-05-05T09:39:20.770Z,22.10
2023-05-05T09:41:53.563Z,22.00
2023-05-05T09:44:38.429Z,21.90
2023-05-05T09:47:26.169Z,21.80
2023-05-05T09:50:02.049Z,21.80
2023-05-05T09:52:34.813Z,21.80
2023-05-05T09:55:17.517Z,21.70
2023-05-05T09:57:50.820Z,21.60
2023-05-05T10:00:38.915Z,21.40
2023-05-05T10:03:11.916Z,21.30
2023-05-05T10:05:55.881Z,21.40
2023-05-05T10:08:31.474Z,21.30
2023-05-05T10:11:07.047Z,21.50
2023-05-05T10:13:42.331Z,21.60
2023-05-05T10:16:18.234Z,21.70
2023-05-05T10:18:51.940Z,21.60
2023-05-05T10:21:25.688Z,21.60
2023-05-05T10:24:31.835Z,21.60
2023-05-05T10:27:19.594Z,21.60
2023-05-05T10:29:55.148Z,21.60
2023-05-05T10:32:54.418Z,21.60
2023-05-05T10:35:33.050Z,21.60
2023-05-05T10:38:12.727Z,21.40
2023-05-05T10:40:46.377Z,21.30
2023-05-05T10:43:19.387Z,21.20
2023-05-05T10:45:53.826Z,21.20
2023-05-05T10:48:59.875Z,21.10
2023-05-05T10:51:57.645Z,21.00
2023-05-05T10:54:45.292Z,20.90
2023-05-05T10:57:26.313Z,20.80
2023-05-05T10:59:59.036Z,20.70
2023-05-05T11:02:31.985Z,20.70
2023-05-05T11:05:15.252Z,20.60
2023-05-05T11:07:52.614Z,20.50
2023-05-05T11:10:26.340Z,20.40
2023-05-05T11:13:05.022Z,20.20
2023-05-05T11:15:38.189Z,20.20
2023-05-05T11:18:39.226Z,20.10
2023-05-05T11:21:16.668Z,20.20
2023-05-05T11:23:51.478Z,20.30
2023-05-05T11:26:50.655Z,20.30
2023-05-05T11:29:23.628Z,20.40
2023-05-05T11:32:17.787Z,20.50
2023-05-05T11:34:50.869Z,20.60
2023-05-05T11:37:28.166Z,20.70
2023-05-05T11:40:29.097Z,20.80
2023-05-05T11:43:07.180Z,20.90
2023-05-05T11:45:40.159Z,21.00
2023-05-05T11:48:28.542Z,21.10
2023-05-05T11:51:03.553Z,21.20
2023-05-05T11:53:43.692Z,21.10
2023-05-05T11:56:21.943Z,21.10
2023-05-05T11:59:09.805Z,21.00
2023-05-05T12:01:43.654Z,20.90
2023-05-05T12:04:16.860Z,20.80
2023-05-05T12:06:50.323Z,20.60
2023-05-05T12:09:23.963Z,20.50
2023-05-05T12:11:58.599Z,20.40
2023-05-05T12:14:31.635Z,20.40
2023-05-05T12:17:08.695Z,20.30
2023-05-05T12:19:49.373Z,20.10
2023-05-05T12:22:28.187Z,19.90
2023-05-05T12:25:06.652Z,19.80
2023-05-05T12:27:39.525Z,19.70
2023-05-05T12:30:14.740Z,19.60
2023-05-05T12:32:47.615Z,19.50
2023-05-05T12:35:22.039Z,19.40
2023-05-05T12:37:55.123Z,19.30
2023-05-05T12:40:48.122Z,19.20
2023-05-05T12:43:35.309Z,19.00
2023-05-05T12:46:11.068Z,18.80
2023-05-05T12:48:46.405Z,18.70
2023-05-05T12:51:23.254Z,18.60
2023-05-05T12:54:03.436Z,18.40
2023-05-05T12:56:38.387Z,18.20
2023-05-05T12:59:23.313Z,18.10
2023-05-05T13:01:57.921Z,18.00
2023-05-05T13:04:31.605Z,17.90
2023-05-05T13:07:14.777Z,17.70
2023-05-05T13:09:51.424Z,17.50
2023-05-05T13:12:25.176Z,17.40
2023-05-05T13:14:57.949Z,17.30
2023-05-05T13:17:32.706Z,17.30
2023-05-05T13:20:09.670Z,17.20
2023-05-05T13:22:42.637Z,17.20
2023-05-05T13:25:15.996Z,17.20
2023-05-05T13:27:48.830Z,17.30
2023-05-05T13:30:21.774Z,17.30
2023-05-05T13:32:54.628Z,17.20
2023-05-05T13:35:27.509Z,17.20
2023-05-05T13:38:01.704Z,17.20
2023-05-05T13:40:34.720Z,17.20
2023-05-05T13:43:07.777Z,17.10
2023-05-05T13:45:41.856Z,17.00
2023-05-05T13:48:15.357Z,17.10
2023-05-05T13:50:49.336Z,17.00
2023-05-05T13:53:22.175Z,17.00
2023-05-05T13:55:55.081Z,17.00
2023-05-05T13:58:27.986Z,17.00
2023-05-05T14:01:01.635Z,17.10
2023-05-05T14:03:34.745Z,17.20
2023-05-05T14:06:09.044Z,17.20
2023-05-05T14:08:42.294Z,17.20
2023-05-05T14:11:19.292Z,17.20
2023-05-05T14:13:52.247Z,17.20
2023-05-05T14:16:24.966Z,17.20
2023-05-05T14:18:57.727Z,17.20
2023-05-05T14:21:32.497Z,17.30
2023-05-05T14:24:05.819Z,17.50
2023-05-05T14:26:38.584Z,17.60
2023-05-05T14:29:11.370Z,17.60
2023-05-05T14:31:44.741Z,17.70
2023-05-05T14:34:17.711Z,17.70
2023-05-05T14:36:50.943Z,17.70
2023-05-05T14:39:23.977Z,17.80
2023-05-05T14:41:56.732Z,17.80
2023-05-05T14:44:29.539Z,18.00
2023-05-05T14:47:02.479Z,18.10
2023-05-05T14:49:35.646Z,18.20
2023-05-05T14:52:08.396Z,18.30
2023-05-05T14:54:41.183Z,18.40
2023-05-05T14:57:14.055Z,18.40
2023-05-05T14:59:51.454Z,18.40
2023-05-05T15:02:24.315Z,18.30
2023-05-05T15:04:57.308Z,18.30
2023-05-05T15:07:30.568Z,18.40
2023-05-05T15:10:05.103Z,18.40
2023-05-05T15:12:39.176Z,18.50
2023-05-05T15:15:12.224Z,18.50
2023-05-05T15:17:44.929Z,18.50
2023-05-05T15:20:17.719Z,18.40
2023-05-05T15:22:50.656Z,18.50
2023-05-05T15:25:24.225Z,18.50
2023-05-05T15:27:58.878Z,18.60
2023-05-05T15:30:31.682Z,18.60
2023-05-05T15:33:04.861Z,18.70
2023-05-05T15:35:37.846Z,18.70
2023-05-05T15:38:10.767Z,18.60
2023-05-05T15:40:47.126Z,18.50
2023-05-05T15:43:21.010Z,18.50
2023-05-05T15:45:54.747Z,18.40
2023-05-05T15:48:27.750Z,18.40
2023-05-05T15:51:00.488Z,18.30
2023-05-05T15:53:34.070Z,18.30
2023-05-05T15:56:07.077Z,18.30
2023-05-05T15:58:40.140Z,18.30
2023-05-05T16:01:13.172Z,18.30
2023-05-05T16:03:46.034Z,18.30
2023-05-05T16:06:19.129Z,18.30
2023-05-05T16:08:53.387Z,18.20
2023-05-05T16:11:27.281Z,18.20
2023-05-05T16:14:00.007Z,18.20
2023-05-05T16:16:33.075Z,18.30
2023-05-05T16:19:05.841Z,18.30
2023-05-05T16:21:38.892Z,18.30
2023-05-05T16:24:16.004Z,18.30
2023-05-05T16:26:49.070Z,18.20
2023-05-05T16:29:22.434Z,18.30
2023-05-05T16:31:55.618Z,18.20
2023-05-05T16:34:28.348Z,18.20
2023-05-05T16:37:01.245Z,18.20
2023-05-05T16:39:35.400Z,18.20
2023-05-05T16:42:08.298Z,18.20
2023-05-05T16:44:41.184Z,18.20
2023-05-05T16:47:14.227Z,18.20
2023-05-05T16:49:47.349Z,18.20
2023-05-05T16:52:20.592Z,18.10
2023-05-05T16:54:55.280Z,18.10
2023-05-05T16:57:29.000Z,18.10
2023-05-05T17:00:01.985Z,18.10
2023-05-05T17:02:35.974Z,18.00
2023-05-05T17:05:09.471Z,18.00
2023-05-05T17:07:42.720Z,18.00
2023-05-05T17:10:15.448Z,17.90
2023-05-05T17:12:48.405Z,17.80
2023-05-05T17:15:22.247Z,17.70
2023-05-05T17:17:55.405Z,17.60
2023-05-05T17:20:28.481Z,17.60
2023-05-05T17:23:05.044Z,17.50
2023-05-05T17:25:37.981Z,17.40
2023-05-05T17:28:10.786Z,17.40
2023-05-05T17:30:43.834Z,17.40
2023-05-05T17:33:21.463Z,17.40
2023-05-05T17:35:54.985Z,17.40
2023-05-05T17:38:27.922Z,17.40
2023-05-05T17:41:00.721Z,17.40
2023-05-05T17:43:33.500Z,17.40
2023-05-05T17:46:06.283Z,17.40
2023-05-05T17:48:39.374Z,17.40
2023-05-05T17:51:12.104Z,17.40
2023-05-05T17:53:44.923Z,17.30
2023-05-05T17:56:18.005Z,17.30
2023-05-05T17:58:50.862Z,17.20
2023-05-05T18:01:25.678Z,17.20
2023-05-05T18:03:58.920Z,17.10
2023-05-05T18:06:32.121Z,17.10
2023-05-05T18:09:05.079Z,17.00
2023-05-05T18:11:38.994Z,16.90
2023-05-05T18:14:11.887Z,16.90
2023-05-05T18:16:49.372Z,16.80
2023-05-05T18:19:23.398Z,16.80
2023-05-05T18:21:57.336Z,16.70
2023-05-05T18:24:30.925Z,16.70
2023-05-05T18:27:06.651Z,16.70
2023-05-05T18:29:40.446Z,16.70
2023-05-05T18:32:13.529Z,16.70
2023-05-05T18:34:46.359Z,16.60
2023-05-05T18:37:19.373Z,16.60
2023-05-05T18:39:52.864Z,16.60
2023-05-05T18:42:25.755Z,16.50
2023-05-05T18:44:58.588Z,16.40
2023-05-05T18:47:31.974Z,16.40
2023-05-05T18:50:06.155Z,16.30
2023-05-05T18:52:39.482Z,16.30
2023-05-05T18:55:12.491Z,16.30
2023-05-05T18:57:45.302Z,16.20
2023-05-05T19:00:20.087Z,16.20
2023-05-05T19:02:54.385Z,16.10
2023-05-05T19:05:27.890Z,16.00
2023-05-05T19:08:00.786Z,16.00
2023-05-05T19:10:33.668Z,15.90
2023-05-05T19:13:06.792Z,15.80
2023-05-05T19:15:39.702Z,15.80
2023-05-05T19:18:12.615Z,15.80
2023-05-05T19:20:45.721Z,15.70
2023-05-05T19:23:18.691Z,15.70
2023-05-05T19:25:53.504Z,15.60
2023-05-05T19:28:26.727Z,15.50
2023-05-05T19:31:01.504Z,15.50
2023-05-05T19:33:34.248Z,15.20
2023-05-05T19:36:07.528Z,15.30
2023-05-05T19:38:45.020Z,15.30
2023-05-05T19:41:21.121Z,15.20
2023-05-05T19:43:54.150Z,15.20
2023-05-05T19:46:27.050Z,15.10
2023-05-05T19:48:59.844Z,15.00
2023-05-05T19:51:32.813Z,14.80
2023-05-05T19:54:08.214Z,14.80
2023-05-05T19:56:41.489Z,14.80
2023-05-05T19:59:14.673Z,14.70
2023-05-05T20:01:47.625Z,14.60
2023-05-05T20:04:20.365Z,14.50
2023-05-05T20:06:53.353Z,14.50
2023-05-05T20:09:27.606Z,14.50
2023-05-05T20:12:02.148Z,14.40
2023-05-05T20:14:34.878Z,14.30
2023-05-05T20:17:07.992Z,14.30
2023-05-05T20:19:40.808Z,14.30
2023-05-05T20:22:13.626Z,14.30
2023-05-05T20:24:46.337Z,14.30
2023-05-05T20:27:19.436Z,14.20
2023-05-05T20:29:52.776Z,14.20
2023-05-05T20:32:25.752Z,14.20
2023-05-05T20:34:58.831Z,14.20
2023-05-05T20:37:32.039Z,14.20
2023-05-05T20:40:05.059Z,14.10
2023-05-05T20:42:37.792Z,14.10
2023-05-05T20:45:11.229Z,14.10
2023-05-05T20:47:44.857Z,14.10
2023-05-05T20:50:21.050Z,14.10
2023-05-05T20:52:53.892Z,14.10
2023-05-05T20:55:26.794Z,14.10
2023-05-05T20:57:59.640Z,14.10
2023-05-05T21:00:32.476Z,14.10
2023-05-05T21:03:06.612Z,14.10
2023-05-05T21:05:42.935Z,14.10
2023-05-05T21:08:15.972Z,14.00
2023-05-05T21:10:48.895Z,13.90
2023-05-05T21:13:22.932Z,13.80
2023-05-05T21:15:55.890Z,13.80
2023-05-05T21:18:31.345Z,13.80
2023-05-05T21:21:04.432Z,13.80
2023-05-05T21:23:37.357Z,13.80
2023-05-05T21:26:10.393Z,13.90
2023-05-05T21:28:43.388Z,13.90
2023-05-05T21:33:52.178Z,13.80
2023-05-05T21:36:25.133Z,13.80
2023-05-05T21:39:00.294Z,13.80
2023-05-05T21:41:33.172Z,13.80
2023-05-05T21:44:06.209Z,13.80
2023-05-05T21:46:39.044Z,13.80
2023-05-05T21:49:14.975Z,13.80
2023-05-05T21:51:47.905Z,13.80
2023-05-05T21:54:20.890Z,13.80
2023-05-05T21:56:53.943Z,13.80
2023-05-05T21:59:26.726Z,13.80
2023-05-05T22:01:59.562Z,13.80
2023-05-05T22:04:32.826Z,13.80
2023-05-05T22:07:06.009Z,13.80
2023-05-05T22:09:39.140Z,13.80
2023-05-05T22:12:11.938Z,13.80
2023-05-05T22:14:44.775Z,13.80
2023-05-05T22:17:17.502Z,13.80
2023-05-05T22:19:50.727Z,13.80
2023-05-05T22:22:23.720Z,13.80
2023-05-05T22:24:56.741Z,13.80
2023-05-05T22:27:30.089Z,13.80
2023-05-05T22:30:03.771Z,13.80
2023-05-05T22:32:36.585Z,13.80
2023-05-05T22:35:09.945Z,13.80
2023-05-05T22:37:42.920Z,13.80
2023-05-05T22:40:16.013Z,13.80
2023-05-05T22:42:48.852Z,13.80
2023-05-05T22:45:22.946Z,13.80
2023-05-05T22:47:55.767Z,13.80
2023-05-05T22:50:29.008Z,13.80
2023-05-05T22:53:03.130Z,13.80
2023-05-05T22:55:35.966Z,13.80
2023-05-05T22:58:08.908Z,13.90
2023-05-05T23:00:42.074Z,13.80
2023-05-05T23:03:16.088Z,13.90
2023-05-05T23:05:48.884Z,13.90
2023-05-05T23:08:23.860Z,13.90
2023-05-05T23:10:57.193Z,14.00
2023-05-05T23:13:29.922Z,14.00
2023-05-05T23:16:03.088Z,14.00
2023-05-05T23:18:36.784Z,14.00
2023-05-05T23:21:10.816Z,13.80
2023-05-05T23:23:43.565Z,13.70
2023-05-05T23:26:16.478Z,13.70
2023-05-05T23:28:49.261Z,13.70
2023-05-05T23:31:22.487Z,13.80
2023-05-05T23:33:55.268Z,13.80
2023-05-05T23:36:28.180Z,13.90
2023-05-05T23:39:01.379Z,13.90
2023-05-05T23:41:34.462Z,14.00
2023-05-05T23:44:07.419Z,14.00
2023-05-05T23:46:40.354Z,14.00
2023-05-05T23:49:13.389Z,14.00
2023-05-05T23:51:46.191Z,14.00
2023-05-05T23:54:18.930Z,14.00
2023-05-05T23:56:51.820Z,14.10
2023-05-05T23:59:24.508Z,14.10
